Time;durP1;ratioP1;P1;durP2;ratioP2;P2;SDS_P1;SDS_P2;PMS_P1;PMS_P2;Temp;Humidity;BMP_temperature;BMP_pressure;BME280_temperature;BME280_humidity;BME280_pressure;Samples;Min_cycle;Max_cycle;Signal;HPM_P1;HPM_P2
2021/04/10 00:01:01;;;;;;;4.25;2.15;;;10.60;1.00;;;;;;5014895;28;20053;-74
2021/04/10 00:03:28;;;;;;;4.07;2.28;;;10.60;1.00;;;;;;5012372;28;20499;-73
2021/04/10 00:05:54;;;;;;;4.18;2.28;;;10.50;1.00;;;;;;5011746;28;20049;-73
2021/04/10 00:08:21;;;;;;;6.53;2.38;;;10.50;1.00;;;;;;5016969;28;20050;-73
2021/04/10 00:10:48;;;;;;;4.13;2.40;;;10.50;1.00;;;;;;5023126;28;20061;-72
2021/04/10 00:13:15;;;;;;;6.32;2.58;;;10.60;1.00;;;;;;5013460;28;20057;-72
2021/04/10 00:15:43;;;;;;;6.35;2.75;;;10.60;1.00;;;;;;5013522;28;20064;-74
2021/04/10 00:18:13;;;;;;;5.57;2.33;;;10.70;1.00;;;;;;5013442;28;20060;-72
2021/04/10 00:20:40;;;;;;;4.80;2.03;;;10.80;1.00;;;;;;5016659;28;20057;-72
2021/04/10 00:23:07;;;;;;;5.57;2.35;;;10.90;1.00;;;;;;5012770;28;20049;-72
2021/04/10 00:25:34;;;;;;;3.75;2.10;;;11.00;1.00;;;;;;5012737;28;20419;-72
2021/04/10 00:28:01;;;;;;;5.20;1.92;;;11.00;1.00;;;;;;5014171;28;20052;-72
2021/04/10 00:30:28;;;;;;;6.47;2.13;;;11.10;1.00;;;;;;5016544;28;20046;-73
2021/04/10 00:32:55;;;;;;;5.70;1.80;;;11.10;1.00;;;;;;5007642;28;20042;-71
2021/04/10 00:35:22;;;;;;;6.78;1.77;;;11.20;1.00;;;;;;5015811;28;20471;-72
2021/04/10 00:37:49;;;;;;;6.50;2.10;;;11.20;1.00;;;;;;5012537;28;20133;-74
2021/04/10 00:40:16;;;;;;;6.18;2.17;;;11.10;1.00;;;;;;5016832;28;20054;-72
2021/04/10 00:42:43;;;;;;;4.72;1.90;;;11.20;1.00;;;;;;5011762;28;20049;-71
2021/04/10 00:45:10;;;;;;;8.98;2.00;;;11.30;1.00;;;;;;5014066;28;20046;-72
2021/04/10 00:47:37;;;;;;;4.32;1.70;;;11.40;1.00;;;;;;5003217;28;20120;-72
2021/04/10 00:50:07;;;;;;;5.72;2.00;;;11.30;1.00;;;;;;5009973;28;20050;-72
2021/04/10 00:52:34;;;;;;;6.25;2.75;;;11.40;1.00;;;;;;5010421;28;20054;-72
2021/04/10 00:55:04;;;;;;;3.90;2.13;;;11.40;1.00;;;;;;5012775;28;20042;-71
2021/04/10 00:57:31;;;;;;;4.30;1.98;;;11.50;1.00;;;;;;5011357;28;20405;-72
2021/04/10 00:59:58;;;;;;;5.55;2.10;;;11.40;1.00;;;;;;5006518;28;20046;-72
2021/04/10 01:02:25;;;;;;;5.75;2.10;;;11.40;1.00;;;;;;5010983;28;20062;-72
2021/04/10 01:04:53;;;;;;;4.90;1.83;;;11.40;1.00;;;;;;5011206;28;20084;-73
2021/04/10 01:07:20;;;;;;;4.90;2.00;;;11.40;1.00;;;;;;5013392;28;20057;-74
2021/04/10 01:09:53;;;;;;;6.07;2.15;;;11.40;1.00;;;;;;5016369;28;20830;-73
2021/04/10 01:12:38;;;;;;;5.05;1.90;;;11.50;1.00;;;;;;5010874;28;20046;-74
2021/04/10 01:15:14;;;;;;;7.10;1.90;;;11.40;1.00;;;;;;5005156;28;20054;-71
2021/04/10 01:17:44;;;;;;;7.00;1.85;;;11.50;1.00;;;;;;5008416;28;20069;-72
2021/04/10 01:20:35;;;;;;;5.28;1.98;;;11.50;1.00;;;;;;5011389;28;20050;-75
2021/04/10 01:23:25;;;;;;;6.88;2.33;;;11.50;1.00;;;;;;5007164;28;20046;-72
2021/04/10 01:26:06;;;;;;;4.03;1.77;;;11.40;1.00;;;;;;4998432;28;20050;-71
2021/04/10 01:28:47;;;;;;;8.73;1.80;;;11.30;1.00;;;;;;5008062;28;20050;-72
2021/04/10 01:31:16;;;;;;;6.30;1.77;;;11.30;1.00;;;;;;5006730;28;20064;-71
2021/04/10 01:33:47;;;;;;;11.00;1.88;;;11.30;1.00;;;;;;5007265;28;20056;-71
2021/04/10 01:36:18;;;;;;;4.43;1.60;;;11.30;1.00;;;;;;5005339;28;20049;-72
2021/04/10 01:38:48;;;;;;;5.78;1.75;;;11.50;1.00;;;;;;5010132;28;20056;-72
2021/04/10 01:41:16;;;;;;;4.82;1.80;;;11.50;1.00;;;;;;5008409;28;20060;-72
2021/04/10 01:43:44;;;;;;;4.15;1.65;;;11.50;1.00;;;;;;5010934;28;20068;-73
2021/04/10 01:46:12;;;;;;;5.82;1.73;;;11.60;1.00;;;;;;5008218;28;20053;-73
2021/04/10 01:48:41;;;;;;;8.40;1.70;;;11.60;1.00;;;;;;5008548;28;20137;-72
2021/04/10 01:51:09;;;;;;;4.68;1.30;;;11.60;1.00;;;;;;5008704;28;20427;-72
2021/04/10 01:53:37;;;;;;;4.45;1.48;;;11.60;1.00;;;;;;5011031;28;20053;-72
2021/04/10 01:56:06;;;;;;;5.10;1.58;;;11.60;1.00;;;;;;5008246;28;20054;-74
2021/04/10 01:58:35;;;;;;;2.90;1.50;;;11.60;1.00;;;;;;5009220;28;20056;-72
2021/04/10 02:01:03;;;;;;;3.85;1.42;;;11.60;1.00;;;;;;5013709;28;20050;-72
2021/04/10 02:03:31;;;;;;;3.42;1.77;;;11.60;1.00;;;;;;5008130;28;20060;-73
2021/04/10 02:06:01;;;;;;;3.30;1.27;;;11.60;1.00;;;;;;5010580;28;20056;-73
2021/04/10 02:08:32;;;;;;;4.10;1.60;;;11.60;1.00;;;;;;5009092;28;20411;-73
2021/04/10 02:11:01;;;;;;;6.55;1.65;;;11.60;1.00;;;;;;5005532;28;20676;-72
2021/04/10 02:13:29;;;;;;;4.50;1.40;;;11.60;1.00;;;;;;5008402;28;20496;-72
2021/04/10 02:15:56;;;;;;;4.85;1.10;;;11.60;1.00;;;;;;5009705;28;20046;-72
2021/04/10 02:18:25;;;;;;;3.22;1.67;;;11.50;1.00;;;;;;5009328;28;20404;-74
2021/04/10 02:20:54;;;;;;;3.72;1.63;;;11.50;1.00;;;;;;5011534;28;20045;-73
2021/04/10 02:23:21;;;;;;;3.47;1.35;;;11.50;1.00;;;;;;5008523;28;20067;-74
2021/04/10 02:25:48;;;;;;;3.42;1.65;;;11.40;1.00;;;;;;5008899;28;20775;-72
2021/04/10 02:28:15;;;;;;;6.53;1.52;;;11.40;1.00;;;;;;5008014;28;20419;-72
2021/04/10 02:30:42;;;;;;;3.50;1.25;;;11.40;1.00;;;;;;5009793;28;20050;-71
2021/04/10 02:33:11;;;;;;;3.60;1.50;;;11.40;1.00;;;;;;5010803;28;20050;-72
2021/04/10 02:35:44;;;;;;;1.90;1.35;;;11.40;1.00;;;;;;5011864;28;20726;-71
2021/04/10 02:38:13;;;;;;;4.07;1.45;;;11.40;1.00;;;;;;5008576;28;20056;-72
2021/04/10 02:40:44;;;;;;;3.13;1.40;;;11.30;1.00;;;;;;5012185;28;20050;-73
2021/04/10 02:43:17;;;;;;;5.60;1.50;;;11.30;1.00;;;;;;5008185;28;20496;-72
2021/04/10 02:45:46;;;;;;;5.30;1.63;;;11.30;1.00;;;;;;5015595;28;20046;-73
2021/04/10 02:48:22;;;;;;;3.17;1.60;;;11.30;1.00;;;;;;5017290;28;20419;-72
2021/04/10 02:50:50;;;;;;;4.53;1.33;;;11.30;1.00;;;;;;5010583;28;20393;-73
2021/04/10 02:53:18;;;;;;;7.03;1.70;;;11.30;1.00;;;;;;5011683;28;20069;-73
2021/04/10 02:55:46;;;;;;;3.55;1.70;;;11.30;1.00;;;;;;5016168;28;20041;-73
2021/04/10 02:58:15;;;;;;;3.45;1.55;;;11.20;1.00;;;;;;5012342;28;20053;-72
2021/04/10 03:00:44;;;;;;;2.13;1.33;;;11.30;1.00;;;;;;5009183;28;20416;-72
2021/04/10 03:03:13;;;;;;;5.03;1.50;;;11.30;1.00;;;;;;5011985;28;20049;-73
2021/04/10 03:05:42;;;;;;;2.85;1.60;;;11.30;1.00;;;;;;5013209;28;20383;-73
2021/04/10 03:08:14;;;;;;;2.42;1.40;;;11.30;1.00;;;;;;5017968;28;20514;-72
2021/04/10 03:10:45;;;;;;;7.28;1.92;;;11.30;1.00;;;;;;5016566;28;20056;-72
2021/04/10 03:13:13;;;;;;;6.10;1.92;;;11.30;1.00;;;;;;5013059;28;20063;-72
2021/04/10 03:15:40;;;;;;;5.10;1.80;;;11.40;1.00;;;;;;5014342;28;20051;-73
2021/04/10 03:18:10;;;;;;;3.95;2.10;;;11.40;1.00;;;;;;5016734;28;20484;-73
2021/04/10 03:20:37;;;;;;;5.80;2.00;;;11.30;1.00;;;;;;5010139;28;20049;-73
2021/04/10 03:23:05;;;;;;;3.28;1.50;;;11.30;1.00;;;;;;5013641;28;20084;-73
2021/04/10 03:25:32;;;;;;;2.55;1.15;;;11.30;1.00;;;;;;5015888;28;20048;-74
2021/04/10 03:28:00;;;;;;;3.60;1.40;;;11.40;1.00;;;;;;5014877;28;20144;-72
2021/04/10 03:30:28;;;;;;;3.38;1.73;;;11.40;1.00;;;;;;5015800;28;20155;-73
2021/04/10 03:32:55;;;;;;;4.07;1.08;;;11.40;1.00;;;;;;5010743;28;20427;-73
2021/04/10 03:35:26;;;;;;;2.55;1.27;;;11.40;1.00;;;;;;5015084;28;20046;-73
2021/04/10 03:37:54;;;;;;;3.15;1.52;;;11.50;1.00;;;;;;5015208;28;20128;-73
2021/04/10 03:40:21;;;;;;;4.80;1.60;;;11.40;1.00;;;;;;5016636;28;20045;-73
2021/04/10 03:42:49;;;;;;;4.35;1.58;;;11.40;1.00;;;;;;5016993;28;20050;-70
2021/04/10 03:45:18;;;;;;;2.83;1.45;;;11.30;1.00;;;;;;5014793;28;20049;-71
2021/04/10 03:47:54;;;;;;;2.78;1.50;;;11.30;1.00;;;;;;5010943;28;20445;-73
2021/04/10 03:50:22;;;;;;;4.95;1.48;;;11.30;1.00;;;;;;5015324;28;20046;-73
2021/04/10 03:52:49;;;;;;;4.88;1.55;;;11.30;1.00;;;;;;5008857;28;20050;-70
2021/04/10 03:55:16;;;;;;;3.75;1.58;;;11.20;1.00;;;;;;5012823;28;20069;-72
2021/04/10 03:57:43;;;;;;;3.15;1.83;;;11.20;1.00;;;;;;5011243;28;20042;-72
2021/04/10 04:00:12;;;;;;;3.88;1.85;;;11.20;1.00;;;;;;5010119;28;20054;-72
2021/04/10 04:02:39;;;;;;;6.90;1.98;;;11.20;1.00;;;;;;5006731;28;20049;-73
2021/04/10 04:05:07;;;;;;;3.25;1.55;;;11.20;1.00;;;;;;5011123;28;20038;-72
2021/04/10 04:07:34;;;;;;;4.60;1.83;;;11.20;1.00;;;;;;5021275;28;20055;-74
2021/04/10 04:10:01;;;;;;;4.25;1.45;;;11.20;1.00;;;;;;5018013;28;20045;-72
2021/04/10 04:12:28;;;;;;;4.82;1.48;;;11.20;1.00;;;;;;5018492;28;20437;-73
2021/04/10 04:14:55;;;;;;;5.45;1.63;;;11.10;1.00;;;;;;5014841;28;20084;-74
2021/04/10 04:17:23;;;;;;;3.78;1.25;;;11.10;1.00;;;;;;5013669;28;20054;-75
2021/04/10 04:19:50;;;;;;;5.25;1.60;;;11.10;1.00;;;;;;5019429;28;20503;-73
2021/04/10 04:22:17;;;;;;;6.28;1.30;;;11.10;1.00;;;;;;5009404;28;20061;-72
2021/04/10 04:24:43;;;;;;;3.95;1.73;;;11.10;1.00;;;;;;5022756;28;20042;-72
2021/04/10 04:27:10;;;;;;;3.95;1.63;;;11.00;1.00;;;;;;5013250;28;20053;-72
2021/04/10 04:29:39;;;;;;;3.88;1.63;;;11.00;1.00;;;;;;5011949;28;20423;-72
2021/04/10 04:32:07;;;;;;;3.30;1.50;;;11.00;1.00;;;;;;5008139;28;20156;-73
2021/04/10 04:34:36;;;;;;;4.93;1.52;;;10.90;1.00;;;;;;5011918;28;20487;-72
2021/04/10 04:37:04;;;;;;;3.05;1.77;;;10.90;1.00;;;;;;5010744;28;20064;-73
2021/04/10 04:39:31;;;;;;;5.15;1.27;;;10.90;1.00;;;;;;5013831;28;20045;-73
2021/04/10 04:42:00;;;;;;;2.00;1.40;;;10.80;1.00;;;;;;5011420;28;20059;-73
2021/04/10 04:44:27;;;;;;;3.47;1.08;;;10.80;1.00;;;;;;5011779;28;20056;-73
2021/04/10 04:46:54;;;;;;;3.20;1.63;;;10.80;1.00;;;;;;5010341;28;20057;-73
2021/04/10 04:49:21;;;;;;;3.55;1.80;;;10.80;1.00;;;;;;5012768;28;20397;-73
2021/04/10 04:51:49;;;;;;;2.75;1.30;;;10.80;1.00;;;;;;5009349;28;20051;-73
2021/04/10 04:54:16;;;;;;;2.80;1.15;;;10.80;1.00;;;;;;5012986;28;20050;-72
2021/04/10 04:56:43;;;;;;;2.75;1.50;;;10.80;1.00;;;;;;5008904;28;20046;-74
2021/04/10 04:59:09;;;;;;;6.28;1.58;;;10.70;1.00;;;;;;5012340;28;20488;-73
2021/04/10 05:01:36;;;;;;;1.48;1.08;;;10.70;1.00;;;;;;5009036;28;20065;-72
2021/04/10 05:04:03;;;;;;;3.85;1.30;;;10.70;1.00;;;;;;5006687;28;20421;-73
2021/04/10 05:06:30;;;;;;;3.08;1.25;;;10.70;1.00;;;;;;5009682;28;20046;-72
2021/04/10 05:08:58;;;;;;;2.58;1.05;;;10.70;1.00;;;;;;5009861;28;20065;-72
2021/04/10 05:11:25;;;;;;;2.17;1.08;;;10.70;1.00;;;;;;5008971;28;20057;-72
2021/04/10 05:13:52;;;;;;;1.50;1.05;;;10.70;1.00;;;;;;5007972;28;20048;-73
2021/04/10 05:19:04;;;;;;;2.58;1.23;;;10.60;1.00;;;;;;5109041;23;20129;-71
2021/04/10 05:21:31;;;;;;;2.35;1.20;;;10.60;1.00;;;;;;4989927;28;20128;-72
2021/04/10 05:23:59;;;;;;;4.63;1.33;;;10.60;1.00;;;;;;4991258;28;20526;-73
2021/04/10 05:26:26;;;;;;;3.13;1.40;;;10.60;1.00;;;;;;4996975;28;20057;-72
2021/04/10 05:28:53;;;;;;;3.30;1.27;;;10.60;1.00;;;;;;4992726;28;20419;-72
2021/04/10 05:31:19;;;;;;;3.83;1.30;;;10.60;1.00;;;;;;4998947;28;20504;-72
2021/04/10 05:33:46;;;;;;;4.57;1.30;;;10.60;1.00;;;;;;4993356;28;20412;-73
2021/04/10 05:36:13;;;;;;;4.75;1.60;;;10.60;1.00;;;;;;4997447;28;20049;-72
2021/04/10 05:38:40;;;;;;;3.78;1.20;;;10.60;1.00;;;;;;4993572;28;20046;-72
2021/04/10 05:41:08;;;;;;;3.75;1.50;;;10.70;1.00;;;;;;4998025;28;20515;-72
2021/04/10 05:43:35;;;;;;;5.38;1.38;;;10.70;1.00;;;;;;4993259;28;20050;-72
2021/04/10 05:46:02;;;;;;;2.95;1.00;;;10.70;1.00;;;;;;4997475;28;20042;-72
2021/04/10 05:48:29;;;;;;;4.00;1.40;;;10.70;1.00;;;;;;4989142;28;20062;-73
2021/04/10 05:50:57;;;;;;;2.38;1.10;;;10.80;1.00;;;;;;4994864;28;20129;-73
2021/04/10 05:53:25;;;;;;;5.85;1.92;;;10.90;1.00;;;;;;4990415;28;20079;-73
2021/04/10 05:55:52;;;;;;;5.60;1.65;;;10.90;1.00;;;;;;4995644;28;20686;-72
2021/04/10 05:58:20;;;;;;;2.35;1.27;;;11.00;1.00;;;;;;4994089;28;20043;-72
2021/04/10 06:00:47;;;;;;;5.20;1.35;;;11.00;1.00;;;;;;5000097;28;20136;-73
2021/04/10 06:03:15;;;;;;;2.90;1.80;;;11.00;1.00;;;;;;4992146;28;20050;-73
2021/04/10 06:05:44;;;;;;;5.82;1.55;;;11.10;1.00;;;;;;4994850;28;20046;-71
2021/04/10 06:08:11;;;;;;;3.78;1.25;;;11.10;1.00;;;;;;4998219;28;20052;-72
2021/04/10 06:10:38;;;;;;;4.05;1.20;;;11.10;1.00;;;;;;4997723;28;20415;-72
2021/04/10 06:13:05;;;;;;;2.72;1.10;;;11.20;1.00;;;;;;4996401;28;20050;-73
2021/04/10 06:15:33;;;;;;;4.68;1.27;;;11.20;1.00;;;;;;4993097;28;20149;-72
2021/04/10 06:18:00;;;;;;;2.85;1.48;;;11.10;1.00;;;;;;4993380;28;20471;-72
2021/04/10 06:20:27;;;;;;;2.95;1.10;;;11.20;1.00;;;;;;4999704;28;20045;-72
2021/04/10 06:22:54;;;;;;;3.22;1.17;;;11.20;1.00;;;;;;4997729;28;20050;-71
2021/04/10 06:25:20;;;;;;;3.75;1.40;;;11.20;1.00;;;;;;5000068;28;20507;-71
2021/04/10 06:27:47;;;;;;;2.65;1.58;;;11.20;1.00;;;;;;5002565;28;20142;-72
2021/04/10 06:30:15;;;;;;;6.97;1.48;;;11.20;1.00;;;;;;5003394;28;20046;-72
2021/04/10 06:32:43;;;;;;;2.35;1.23;;;11.20;1.00;;;;;;5000577;28;20065;-73
2021/04/10 06:35:11;;;;;;;1.88;1.20;;;11.20;1.00;;;;;;5002823;28;20050;-72
2021/04/10 06:37:38;;;;;;;5.57;1.20;;;11.20;1.00;;;;;;5003885;28;20676;-70
2021/04/10 06:40:07;;;;;;;4.35;1.40;;;11.20;1.00;;;;;;5002414;28;20052;-71
2021/04/10 06:42:34;;;;;;;4.07;1.60;;;11.20;1.00;;;;;;4994985;28;20049;-71
2021/04/10 06:45:02;;;;;;;4.63;1.50;;;11.20;1.00;;;;;;5005837;28;20531;-71
2021/04/10 06:47:33;;;;;;;6.30;1.77;;;11.30;1.00;;;;;;5001411;28;20065;-71
2021/04/10 06:50:05;;;;;;;3.00;1.23;;;11.40;1.00;;;;;;5000381;28;20050;-72
2021/04/10 06:52:35;;;;;;;2.38;1.35;;;11.40;1.00;;;;;;4994372;28;20519;-71
2021/04/10 06:55:05;;;;;;;3.88;1.60;;;11.50;1.00;;;;;;4999479;28;20503;-71
2021/04/10 06:57:39;;;;;;;6.80;1.48;;;11.40;1.00;;;;;;5003451;28;20049;-73
2021/04/10 07:00:09;;;;;;;3.60;1.27;;;11.40;1.00;;;;;;5000267;28;20480;-73
2021/04/10 07:02:37;;;;;;;2.55;1.23;;;11.40;1.00;;;;;;4999431;28;20392;-73
2021/04/10 07:05:07;;;;;;;5.90;1.60;;;11.40;1.00;;;;;;5003738;28;20419;-75
2021/04/10 07:07:34;;;;;;;4.25;1.88;;;11.60;1.00;;;;;;5002431;28;21436;-74
2021/04/10 07:10:04;;;;;;;2.95;1.40;;;11.50;1.00;;;;;;4999767;28;20050;-73
2021/04/10 07:12:31;;;;;;;1.98;1.10;;;11.50;1.00;;;;;;4994401;28;20057;-74
2021/04/10 07:14:58;;;;;;;3.08;1.33;;;11.50;1.00;;;;;;5001703;28;20054;-72
2021/04/10 07:17:25;;;;;;;3.42;1.17;;;11.60;1.00;;;;;;5002906;28;20076;-72
2021/04/10 07:19:51;;;;;;;5.63;1.38;;;11.80;1.00;;;;;;4997253;28;20058;-73
2021/04/10 07:22:19;;;;;;;4.45;1.58;;;11.70;1.00;;;;;;4997882;28;20045;-73
2021/04/10 07:24:47;;;;;;;3.67;1.63;;;11.70;1.00;;;;;;4998533;28;20056;-73
2021/04/10 07:27:16;;;;;;;3.40;1.35;;;11.70;1.00;;;;;;4997872;28;20062;-72
2021/04/10 07:29:45;;;;;;;4.28;1.33;;;11.70;1.00;;;;;;4995779;28;20042;-73
2021/04/10 07:32:32;;;;;;;2.85;1.35;;;11.60;1.00;;;;;;4990938;28;20136;-73
2021/04/10 07:35:01;;;;;;;3.53;1.50;;;11.80;1.00;;;;;;4998004;28;20470;-74
2021/04/10 07:37:32;;;;;;;1.75;1.30;;;11.90;1.00;;;;;;5000075;28;20052;-73
2021/04/10 07:39:59;;;;;;;10.73;1.73;;;11.80;1.00;;;;;;5002022;28;20510;-72
2021/04/10 07:42:27;;;;;;;5.38;1.58;;;11.70;1.00;;;;;;4996904;28;20060;-74
2021/04/10 07:44:54;;;;;;;2.80;1.50;;;11.60;1.00;;;;;;4998972;28;20088;-72
2021/04/10 07:47:34;;;;;;;3.08;1.52;;;11.60;1.00;;;;;;4996225;28;20088;-73
2021/04/10 07:50:18;;;;;;;2.65;1.50;;;11.30;1.00;;;;;;4999782;28;20383;-70
2021/04/10 07:52:46;;;;;;;2.95;1.80;;;11.40;1.00;;;;;;4995490;28;20061;-75
2021/04/10 07:55:37;;;;;;;1.98;1.55;;;11.50;1.00;;;;;;4997297;28;20048;-72
2021/04/10 07:58:24;;;;;;;4.75;1.30;;;11.40;1.00;;;;;;4997369;28;20042;-72
2021/04/10 08:00:53;;;;;;;5.57;1.50;;;11.40;1.00;;;;;;4995405;28;20050;-71
2021/04/10 08:03:31;;;;;;;4.35;1.50;;;11.30;1.00;;;;;;4993677;28;20046;-73
2021/04/10 08:06:15;;;;;;;4.05;1.67;;;11.30;1.00;;;;;;4999723;28;20048;-72
2021/04/10 08:08:50;;;;;;;4.07;1.50;;;11.20;1.00;;;;;;4995733;28;20054;-72
2021/04/10 08:11:18;;;;;;;3.45;1.52;;;11.20;1.00;;;;;;4995072;28;20060;-74
2021/04/10 08:13:55;;;;;;;3.60;1.27;;;11.20;1.00;;;;;;5000323;28;20045;-73
2021/04/10 08:16:23;;;;;;;2.45;1.30;;;11.30;1.00;;;;;;5000617;28;20042;-73
2021/04/10 08:18:52;;;;;;;2.38;1.60;;;11.20;1.00;;;;;;5002646;28;20042;-72
2021/04/10 08:21:20;;;;;;;3.38;1.50;;;11.20;1.00;;;;;;4993050;28;20416;-73
2021/04/10 08:23:48;;;;;;;4.32;1.17;;;11.30;1.00;;;;;;4997364;28;20074;-72
2021/04/10 08:26:16;;;;;;;2.78;1.33;;;11.40;1.00;;;;;;5002638;28;20053;-71
2021/04/10 08:28:44;;;;;;;2.88;1.55;;;11.40;1.00;;;;;;4997735;28;20137;-72
2021/04/10 08:31:11;;;;;;;2.85;1.20;;;11.40;1.00;;;;;;4993732;28;20500;-73
2021/04/10 08:33:38;;;;;;;4.13;1.42;;;11.40;1.00;;;;;;4997958;28;20105;-73
2021/04/10 08:36:07;;;;;;;2.55;1.50;;;11.40;1.00;;;;;;5001787;28;20510;-72
2021/04/10 08:38:37;;;;;;;3.83;1.58;;;11.40;1.00;;;;;;5005984;28;20046;-72
2021/04/10 08:41:06;;;;;;;5.05;1.98;;;11.30;1.00;;;;;;4992141;28;20046;-74
2021/04/10 08:43:36;;;;;;;3.78;1.38;;;11.20;1.00;;;;;;4997939;28;20050;-73
2021/04/10 08:46:05;;;;;;;3.33;1.65;;;11.20;1.00;;;;;;4998980;28;20085;-72
2021/04/10 08:48:33;;;;;;;4.57;1.90;;;11.10;1.00;;;;;;4998244;28;20429;-73
2021/04/10 08:51:03;;;;;;;2.17;1.42;;;11.10;1.00;;;;;;4993015;28;21716;-73
2021/04/10 08:53:34;;;;;;;2.88;1.70;;;11.10;1.00;;;;;;4996339;28;20057;-73
2021/04/10 08:56:07;;;;;;;3.15;1.63;;;11.10;1.00;;;;;;5002765;28;20041;-73
2021/04/10 08:58:35;;;;;;;4.20;1.83;;;11.10;1.00;;;;;;5002719;28;20104;-74
2021/04/10 09:01:04;;;;;;;2.70;1.52;;;11.20;1.00;;;;;;4996607;28;20141;-73
2021/04/10 09:03:52;;;;;;;3.33;1.80;;;11.20;1.00;;;;;;4995483;28;20537;-74
2021/04/10 09:06:49;;;;;;;1.77;1.23;;;11.20;1.00;;;;;;5007218;28;20060;-72
2021/04/10 09:09:30;;;;;;;2.67;1.55;;;11.30;1.00;;;;;;5002305;28;20069;-73
2021/04/10 09:12:24;;;;;;;3.00;1.30;;;11.30;1.00;;;;;;4991451;28;20054;-73
2021/04/10 09:14:51;;;;;;;4.72;1.42;;;11.30;1.00;;;;;;5005829;28;20056;-74
2021/04/10 09:17:18;;;;;;;2.55;1.55;;;11.40;1.00;;;;;;5000320;28;20050;-73
2021/04/10 09:19:46;;;;;;;3.80;1.77;;;11.50;1.00;;;;;;4999672;28;20096;-73
2021/04/10 09:22:18;;;;;;;2.90;1.67;;;11.60;1.00;;;;;;4990194;28;20050;-73
2021/04/10 09:24:46;;;;;;;4.40;1.60;;;11.50;1.00;;;;;;4996803;28;20539;-73
2021/04/10 09:27:22;;;;;;;2.80;1.60;;;11.60;1.00;;;;;;4998715;28;20042;-73
2021/04/10 09:29:59;;;;;;;4.85;1.60;;;11.70;1.00;;;;;;4994478;28;20058;-73
2021/04/10 09:32:38;;;;;;;2.83;1.58;;;11.80;1.00;;;;;;4990897;28;20679;-72
2021/04/10 09:35:08;;;;;;;2.63;1.60;;;11.80;1.00;;;;;;4998198;28;20061;-74
2021/04/10 09:37:48;;;;;;;3.88;1.80;;;11.90;1.00;;;;;;4993880;28;20499;-74
2021/04/10 09:40:21;;;;;;;4.05;1.95;;;12.00;1.00;;;;;;4994325;28;20072;-73
2021/04/10 09:42:53;;;;;;;3.60;1.35;;;12.00;1.00;;;;;;4990316;28;20057;-73
2021/04/10 09:45:29;;;;;;;3.10;1.35;;;12.00;1.00;;;;;;4993498;28;20050;-72
2021/04/10 09:51:45;;;;;;;4.82;1.70;;;12.10;1.00;;;;;;4991189;28;20478;-75
2021/04/10 09:54:13;;;;;;;3.88;2.08;;;12.40;1.00;;;;;;4993866;28;20053;-71
2021/04/10 09:56:40;;;;;;;2.45;1.52;;;12.30;1.00;;;;;;4996455;28;20530;-72
2021/04/10 09:59:08;;;;;;;3.53;1.55;;;12.50;1.00;;;;;;4996006;28;20060;-71
2021/04/10 10:05:22;;;;;;;3.20;1.20;;;12.60;1.00;;;;;;4989215;28;20042;-75
2021/04/10 10:07:50;;;;;;;10.60;1.58;;;12.60;1.00;;;;;;4997556;28;20734;-74
2021/04/10 10:10:18;;;;;;;5.00;2.00;;;12.60;1.00;;;;;;4995908;28;20839;-74
2021/04/10 10:12:45;;;;;;;6.10;1.48;;;12.50;1.00;;;;;;4995123;28;20053;-73
2021/04/10 10:15:22;;;;;;;3.40;2.40;;;12.30;1.00;;;;;;4995496;28;20050;-73
2021/04/10 10:17:49;;;;;;;4.30;1.40;;;12.30;1.00;;;;;;4994858;28;20574;-74
2021/04/10 10:20:17;;;;;;;5.65;1.40;;;12.30;1.00;;;;;;4997576;28;20065;-74
2021/04/10 10:22:44;;;;;;;2.65;1.13;;;12.40;1.00;;;;;;4987886;28;20500;-73
2021/04/10 10:25:12;;;;;;;3.78;1.30;;;12.30;1.00;;;;;;4996475;28;20060;-72
2021/04/10 10:27:42;;;;;;;4.88;1.83;;;12.30;1.00;;;;;;4990430;28;20061;-73
2021/04/10 10:30:16;;;;;;;7.18;1.83;;;12.50;1.00;;;;;;4993978;28;20488;-73
2021/04/10 10:32:44;;;;;;;;;;;12.60;1.00;;;;;;4988562;28;20062;-72
2021/04/10 10:35:12;;;;;;;4.30;1.33;;;12.60;1.00;;;;;;4998134;28;19922;-72
2021/04/10 10:37:40;;;;;;;2.80;1.23;;;12.60;1.00;;;;;;4988077;28;20057;-72
2021/04/10 10:40:07;;;;;;;3.28;1.75;;;12.70;1.00;;;;;;4999156;28;20405;-71
2021/04/10 10:42:34;;;;;;;3.78;1.80;;;12.60;1.00;;;;;;4991287;28;20496;-72
2021/04/10 10:45:01;;;;;;;4.05;1.23;;;12.80;1.00;;;;;;4996873;28;20136;-73
2021/04/10 10:47:28;;;;;;;3.00;1.25;;;12.90;1.00;;;;;;4993644;28;20058;-73
2021/04/10 10:49:56;;;;;;;5.28;1.27;;;12.90;1.00;;;;;;4998317;28;20463;-74
2021/04/10 10:52:23;;;;;;;2.55;1.25;;;12.90;1.00;;;;;;4988020;28;20405;-73
2021/04/10 10:54:50;;;;;;;3.65;1.00;;;13.10;1.00;;;;;;4995245;28;20074;-72
2021/04/10 10:57:18;;;;;;;4.43;1.45;;;13.30;1.00;;;;;;4994534;28;20805;-73
2021/04/10 11:00:08;;;;;;;6.40;1.60;;;13.40;1.00;;;;;;4996429;28;20068;-73
2021/04/10 11:02:36;;;;;;;2.95;1.20;;;13.60;1.00;;;;;;4991285;28;20060;-73
2021/04/10 11:05:07;;;;;;;4.47;1.65;;;13.80;1.00;;;;;;4989474;28;20496;-72
2021/04/10 11:07:34;;;;;;;2.83;1.55;;;13.90;1.00;;;;;;4990952;28;20046;-72
2021/04/10 11:10:01;;;;;;;10.43;5.50;;;14.10;1.00;;;;;;4999438;28;20054;-73
2021/04/10 11:12:28;;;;;;;1.95;1.20;;;14.20;1.00;;;;;;4994732;28;20058;-72
2021/04/10 11:14:58;;;;;;;5.85;1.30;;;14.20;1.00;;;;;;4996419;28;20050;-74
2021/04/10 11:17:29;;;;;;;2.95;1.08;;;14.30;1.00;;;;;;4997643;28;20091;-74
2021/04/10 11:19:58;;;;;;;3.72;1.20;;;14.20;1.00;;;;;;4998078;28;20966;-74
2021/04/10 11:22:26;;;;;;;1.73;1.02;;;13.90;1.00;;;;;;4996486;28;20041;-74
2021/04/10 11:24:53;;;;;;;3.50;1.52;;;14.20;1.00;;;;;;4998006;28;20058;-74
2021/04/10 11:27:22;;;;;;;2.10;1.10;;;14.50;1.00;;;;;;5001953;28;20315;-74
2021/04/10 11:29:51;;;;;;;3.03;0.95;;;14.70;1.00;;;;;;5001550;28;20050;-73
2021/04/10 11:32:21;;;;;;;10.00;1.67;;;15.00;1.00;;;;;;4994045;28;20066;-75
2021/04/10 11:35:02;;;;;;;2.28;1.00;;;14.90;1.00;;;;;;5000013;28;20416;-74
2021/04/10 11:37:42;;;;;;;3.88;1.10;;;15.10;1.00;;;;;;4996432;28;20064;-74
2021/04/10 11:40:10;;;;;;;4.20;1.38;;;15.40;1.00;;;;;;4993591;28;20058;-73
2021/04/10 11:42:39;;;;;;;2.13;0.80;;;15.20;1.00;;;;;;4989397;28;20186;-73
2021/04/10 11:45:08;;;;;;;1.35;0.93;;;15.60;1.00;;;;;;4998390;28;20069;-74
2021/04/10 11:47:37;;;;;;;3.90;1.00;;;15.50;1.00;;;;;;4994144;28;20062;-73
2021/04/10 11:50:07;;;;;;;3.85;1.20;;;15.40;1.00;;;;;;4999524;28;20060;-72
2021/04/10 11:52:34;;;;;;;3.63;1.05;;;15.50;1.00;;;;;;4992025;28;20411;-73
2021/04/10 11:55:06;;;;;;;3.05;1.10;;;15.60;1.00;;;;;;4996551;28;20046;-73
2021/04/10 11:57:37;;;;;;;2.58;1.17;;;15.60;1.00;;;;;;4992285;28;20046;-71
2021/04/10 12:00:13;;;;;;;4.88;1.20;;;15.30;1.00;;;;;;4993478;28;20042;-72
2021/04/10 12:02:50;;;;;;;3.95;1.77;;;15.40;1.00;;;;;;4971984;28;20298;-72
2021/04/10 12:05:25;;;;;;;3.53;1.58;;;15.90;1.00;;;;;;4998945;28;20042;-72
2021/04/10 12:08:23;;;;;;;3.33;1.20;;;16.00;1.00;;;;;;4995609;28;20098;-71
2021/04/10 12:10:54;;;;;;;2.70;1.20;;;15.70;1.00;;;;;;4995637;28;20069;-72
2021/04/10 12:13:23;;;;;;;1.42;0.98;;;15.80;1.00;;;;;;4996695;28;20077;-72
2021/04/10 12:15:54;;;;;;;2.67;1.50;;;15.10;1.00;;;;;;4995881;28;20054;-72
2021/04/10 12:18:23;;;;;;;2.78;1.15;;;14.90;1.00;;;;;;4988887;28;20051;-73
2021/04/10 12:20:53;;;;;;;1.38;0.90;;;15.60;1.00;;;;;;4995518;28;20055;-74
2021/04/10 12:23:21;;;;;;;2.30;0.80;;;15.90;1.00;;;;;;4993443;28;20515;-72
2021/04/10 12:25:49;;;;;;;3.33;1.38;;;16.20;1.00;;;;;;4997979;28;20050;-71
2021/04/10 12:28:18;;;;;;;1.63;1.02;;;16.70;1.00;;;;;;4998070;28;20089;-72
2021/04/10 12:30:48;;;;;;;2.08;1.10;;;16.90;1.00;;;;;;4997146;28;20088;-77
2021/04/10 12:33:17;;;;;;;3.33;1.40;;;16.40;1.00;;;;;;4993783;28;20046;-73
2021/04/10 12:35:44;;;;;;;3.05;1.40;;;16.80;1.00;;;;;;4997267;28;20050;-73
2021/04/10 12:38:11;;;;;;;1.27;0.90;;;16.50;1.00;;;;;;5000420;28;20191;-72
2021/04/10 12:40:38;;;;;;;2.28;1.20;;;16.80;1.00;;;;;;4995016;28;20061;-73
2021/04/10 12:43:05;;;;;;;1.98;1.13;;;16.80;1.00;;;;;;4994562;28;20054;-72
2021/04/10 12:45:33;;;;;;;1.98;1.10;;;17.50;1.00;;;;;;4997931;28;20057;-75
2021/04/10 12:48:00;;;;;;;3.38;1.33;;;17.10;1.00;;;;;;4998689;28;20046;-72
2021/04/10 12:50:30;;;;;;;2.30;1.10;;;16.30;1.00;;;;;;4997573;28;20046;-73
2021/04/10 12:52:57;;;;;;;2.55;0.98;;;17.10;1.00;;;;;;4986655;28;20150;-74
2021/04/10 12:55:25;;;;;;;3.03;1.20;;;17.00;1.00;;;;;;4993084;28;20060;-72
2021/04/10 12:57:53;;;;;;;2.90;0.93;;;17.40;1.00;;;;;;4994406;28;20057;-72
2021/04/10 13:00:22;;;;;;;1.85;1.00;;;17.20;1.00;;;;;;4998947;28;20054;-72
2021/04/10 13:02:50;;;;;;;1.63;1.13;;;17.40;1.00;;;;;;4990716;28;20571;-75
2021/04/10 13:05:17;;;;;;;1.58;1.17;;;16.60;1.00;;;;;;4995364;28;20112;-73
2021/04/10 13:07:44;;;;;;;2.45;1.40;;;16.70;1.00;;;;;;4996716;28;20185;-67
2021/04/10 13:10:12;;;;;;;3.00;1.42;;;17.10;1.00;;;;;;4998848;28;20060;-70
2021/04/10 13:12:39;;;;;;;4.03;1.45;;;17.20;1.00;;;;;;4991214;28;20046;-71
2021/04/10 13:15:08;;;;;;;2.47;1.15;;;16.80;1.00;;;;;;5000976;28;20053;-71
2021/04/10 13:17:36;;;;;;;1.55;1.08;;;16.70;1.00;;;;;;4993496;28;20057;-70
2021/04/10 13:20:07;;;;;;;1.70;0.80;;;16.90;1.00;;;;;;4992372;28;20160;-71